Cabery, Illinois
Current Conditions -  °F | °C
As of 3:15 PM on Saturday 22 Nov 2014 (Local Time) from KIKK Reporting Station
Overcast Overcast  
Wind Chill: 52°   Ceiling: 2300
Heat Index: 52°   Visibility: 10mi
Dew Point: 47°   Wind: 16mph
Humidity: 83%   Direction: 200°SSW
Pressure: 29.92"   Gusts: 22mph
Location:  40.99°N, 88.2°W
Report Text: KIKK 222115Z AUTO 20014G19KT 10SM OVC023 11/09 A2992 RMK AO2 T01130085
Loading
Personal Weather Stations






























Interactive Weather Map New forecast layout! Learn more

10-Day Weather Forecast

Advertisements
Track Severe Weather on mobile